sensor_id;sensor_type;location;lat;lon;timestamp;P1;durP1;ratioP1;P2;durP2;ratioP2
72728;SDS011;60843;52.062;4.508;2023-09-12T00:01:33;51.88;;;19.80;;
72728;SDS011;60843;52.062;4.508;2023-09-12T00:03:59;46.22;;;19.33;;
72728;SDS011;60843;52.062;4.508;2023-09-12T00:06:24;51.17;;;20.23;;
72728;SDS011;60843;52.062;4.508;2023-09-12T00:08:53;50.08;;;19.08;;
72728;SDS011;60843;52.062;4.508;2023-09-12T00:11:22;55.25;;;20.70;;
72728;SDS011;60843;52.062;4.508;2023-09-12T00:13:50;52.72;;;20.98;;
72728;SDS011;60843;52.062;4.508;2023-09-12T00:16:24;54.08;;;20.67;;
72728;SDS011;60843;52.062;4.508;2023-09-12T00:18:50;51.42;;;19.40;;
72728;SDS011;60843;52.062;4.508;2023-09-12T00:21:15;55.53;;;20.88;;
72728;SDS011;60843;52.062;4.508;2023-09-12T00:23:41;54.75;;;21.00;;
72728;SDS011;60843;52.062;4.508;2023-09-12T00:26:07;53.40;;;20.30;;
72728;SDS011;60843;52.062;4.508;2023-09-12T00:28:32;51.63;;;20.88;;
72728;SDS011;60843;52.062;4.508;2023-09-12T00:30:59;49.40;;;20.38;;
72728;SDS011;60843;52.062;4.508;2023-09-12T00:33:25;48.50;;;19.52;;
72728;SDS011;60843;52.062;4.508;2023-09-12T00:35:54;48.70;;;20.85;;
72728;SDS011;60843;52.062;4.508;2023-09-12T00:38:20;59.50;;;22.40;;
72728;SDS011;60843;52.062;4.508;2023-09-12T00:40:52;56.80;;;21.75;;
72728;SDS011;60843;52.062;4.508;2023-09-12T00:43:18;54.63;;;20.85;;
72728;SDS011;60843;52.062;4.508;2023-09-12T00:45:44;53.47;;;20.70;;
72728;SDS011;60843;52.062;4.508;2023-09-12T00:48:09;58.08;;;21.33;;
72728;SDS011;60843;52.062;4.508;2023-09-12T00:50:36;57.47;;;20.73;;
72728;SDS011;60843;52.062;4.508;2023-09-12T00:53:03;63.88;;;22.38;;
72728;SDS011;60843;52.062;4.508;2023-09-12T00:55:31;62.65;;;21.80;;
72728;SDS011;60843;52.062;4.508;2023-09-12T00:57:58;63.50;;;22.00;;
72728;SDS011;60843;52.062;4.508;2023-09-12T01:00:31;66.95;;;22.25;;
72728;SDS011;60843;52.062;4.508;2023-09-12T01:02:57;58.60;;;22.17;;
72728;SDS011;60843;52.062;4.508;2023-09-12T01:05:23;65.22;;;24.20;;
72728;SDS011;60843;52.062;4.508;2023-09-12T01:07:53;62.95;;;22.05;;
72728;SDS011;60843;52.062;4.508;2023-09-12T01:10:24;57.17;;;21.42;;
72728;SDS011;60843;52.062;4.508;2023-09-12T01:12:53;65.88;;;22.98;;
72728;SDS011;60843;52.062;4.508;2023-09-12T01:15:19;60.08;;;21.25;;
72728;SDS011;60843;52.062;4.508;2023-09-12T01:17:45;62.00;;;21.70;;
72728;SDS011;60843;52.062;4.508;2023-09-12T01:20:14;57.60;;;21.02;;
72728;SDS011;60843;52.062;4.508;2023-09-12T01:27:50;58.95;;;20.42;;
72728;SDS011;60843;52.062;4.508;2023-09-12T01:30:24;56.92;;;19.40;;
72728;SDS011;60843;52.062;4.508;2023-09-12T01:32:53;69.05;;;19.73;;
72728;SDS011;60843;52.062;4.508;2023-09-12T01:35:20;54.78;;;20.35;;
72728;SDS011;60843;52.062;4.508;2023-09-12T01:37:58;53.30;;;17.70;;
72728;SDS011;60843;52.062;4.508;2023-09-12T01:40:43;44.92;;;16.92;;
72728;SDS011;60843;52.062;4.508;2023-09-12T01:46:19;51.72;;;17.33;;
72728;SDS011;60843;52.062;4.508;2023-09-12T01:48:48;39.08;;;16.00;;
72728;SDS011;60843;52.062;4.508;2023-09-12T01:51:16;40.25;;;15.93;;
72728;SDS011;60843;52.062;4.508;2023-09-12T01:53:44;39.38;;;15.63;;
72728;SDS011;60843;52.062;4.508;2023-09-12T01:56:10;44.45;;;16.85;;
72728;SDS011;60843;52.062;4.508;2023-09-12T01:58:37;41.83;;;16.63;;
72728;SDS011;60843;52.062;4.508;2023-09-12T02:01:03;38.95;;;16.25;;
72728;SDS011;60843;52.062;4.508;2023-09-12T02:03:28;36.60;;;14.57;;
72728;SDS011;60843;52.062;4.508;2023-09-12T02:05:56;36.67;;;14.98;;
72728;SDS011;60843;52.062;4.508;2023-09-12T02:08:22;40.53;;;15.65;;
72728;SDS011;60843;52.062;4.508;2023-09-12T02:10:47;42.03;;;16.38;;
72728;SDS011;60843;52.062;4.508;2023-09-12T02:13:13;32.63;;;14.65;;
72728;SDS011;60843;52.062;4.508;2023-09-12T02:15:39;37.28;;;14.95;;
72728;SDS011;60843;52.062;4.508;2023-09-12T02:18:04;41.92;;;14.30;;
72728;SDS011;60843;52.062;4.508;2023-09-12T02:20:32;35.30;;;14.43;;
72728;SDS011;60843;52.062;4.508;2023-09-12T02:23:13;35.08;;;14.50;;
72728;SDS011;60843;52.062;4.508;2023-09-12T02:25:38;37.70;;;15.23;;
72728;SDS011;60843;52.062;4.508;2023-09-12T02:28:04;35.88;;;14.68;;
72728;SDS011;60843;52.062;4.508;2023-09-12T02:30:30;38.72;;;14.05;;
72728;SDS011;60843;52.062;4.508;2023-09-12T02:32:56;37.70;;;13.50;;
72728;SDS011;60843;52.062;4.508;2023-09-12T02:35:22;39.75;;;14.90;;
72728;SDS011;60843;52.062;4.508;2023-09-12T02:37:48;34.45;;;14.23;;
72728;SDS011;60843;52.062;4.508;2023-09-12T02:40:14;38.22;;;14.25;;
72728;SDS011;60843;52.062;4.508;2023-09-12T02:42:39;36.60;;;14.50;;
72728;SDS011;60843;52.062;4.508;2023-09-12T02:45:05;40.67;;;14.18;;
72728;SDS011;60843;52.062;4.508;2023-09-12T02:47:31;38.08;;;14.63;;
72728;SDS011;60843;52.062;4.508;2023-09-12T02:49:57;39.47;;;14.63;;
72728;SDS011;60843;52.062;4.508;2023-09-12T02:52:23;40.78;;;14.52;;
72728;SDS011;60843;52.062;4.508;2023-09-12T02:54:48;42.17;;;14.45;;
72728;SDS011;60843;52.062;4.508;2023-09-12T02:57:14;34.83;;;13.88;;
72728;SDS011;60843;52.062;4.508;2023-09-12T02:59:39;37.05;;;15.07;;
72728;SDS011;60843;52.062;4.508;2023-09-12T03:02:05;41.75;;;15.32;;
72728;SDS011;60843;52.062;4.508;2023-09-12T03:04:32;36.80;;;14.48;;
72728;SDS011;60843;52.062;4.508;2023-09-12T03:07:00;41.80;;;15.40;;
72728;SDS011;60843;52.062;4.508;2023-09-12T03:09:25;40.17;;;14.73;;
72728;SDS011;60843;52.062;4.508;2023-09-12T03:11:51;45.53;;;14.35;;
72728;SDS011;60843;52.062;4.508;2023-09-12T03:14:17;35.72;;;14.88;;
72728;SDS011;60843;52.062;4.508;2023-09-12T03:16:42;37.30;;;13.98;;
72728;SDS011;60843;52.062;4.508;2023-09-12T03:19:08;39.55;;;15.73;;
72728;SDS011;60843;52.062;4.508;2023-09-12T03:21:33;37.92;;;14.38;;
72728;SDS011;60843;52.062;4.508;2023-09-12T03:23:59;39.20;;;14.52;;
72728;SDS011;60843;52.062;4.508;2023-09-12T03:26:26;38.33;;;14.25;;
72728;SDS011;60843;52.062;4.508;2023-09-12T03:28:52;39.08;;;16.13;;
72728;SDS011;60843;52.062;4.508;2023-09-12T03:31:17;44.58;;;15.80;;
72728;SDS011;60843;52.062;4.508;2023-09-12T03:33:44;44.17;;;15.50;;
72728;SDS011;60843;52.062;4.508;2023-09-12T03:36:14;40.83;;;16.73;;
72728;SDS011;60843;52.062;4.508;2023-09-12T03:38:40;39.83;;;15.63;;
72728;SDS011;60843;52.062;4.508;2023-09-12T03:41:06;44.33;;;16.02;;
72728;SDS011;60843;52.062;4.508;2023-09-12T03:43:32;41.38;;;17.40;;
72728;SDS011;60843;52.062;4.508;2023-09-12T03:45:58;42.80;;;16.10;;
72728;SDS011;60843;52.062;4.508;2023-09-12T03:48:24;44.60;;;15.45;;
72728;SDS011;60843;52.062;4.508;2023-09-12T03:50:50;50.78;;;15.40;;
72728;SDS011;60843;52.062;4.508;2023-09-12T03:53:16;42.08;;;15.82;;
72728;SDS011;60843;52.062;4.508;2023-09-12T03:55:44;45.33;;;16.95;;
72728;SDS011;60843;52.062;4.508;2023-09-12T03:58:10;46.63;;;15.50;;
72728;SDS011;60843;52.062;4.508;2023-09-12T04:00:36;50.53;;;17.05;;
72728;SDS011;60843;52.062;4.508;2023-09-12T04:03:01;45.72;;;16.52;;
72728;SDS011;60843;52.062;4.508;2023-09-12T04:05:27;45.38;;;17.15;;
72728;SDS011;60843;52.062;4.508;2023-09-12T04:07:53;48.22;;;16.98;;
72728;SDS011;60843;52.062;4.508;2023-09-12T04:10:22;47.05;;;18.10;;
72728;SDS011;60843;52.062;4.508;2023-09-12T04:12:48;47.83;;;16.85;;
72728;SDS011;60843;52.062;4.508;2023-09-12T04:15:13;56.78;;;16.80;;
72728;SDS011;60843;52.062;4.508;2023-09-12T04:17:39;43.97;;;18.35;;
72728;SDS011;60843;52.062;4.508;2023-09-12T04:20:05;43.80;;;17.15;;
72728;SDS011;60843;52.062;4.508;2023-09-12T04:22:32;53.47;;;17.33;;
72728;SDS011;60843;52.062;4.508;2023-09-12T04:24:58;48.88;;;16.88;;
72728;SDS011;60843;52.062;4.508;2023-09-12T04:27:24;45.53;;;16.58;;
72728;SDS011;60843;52.062;4.508;2023-09-12T04:29:50;42.13;;;16.08;;
72728;SDS011;60843;52.062;4.508;2023-09-12T04:32:15;44.05;;;16.05;;
72728;SDS011;60843;52.062;4.508;2023-09-12T04:34:48;47.80;;;16.45;;
72728;SDS011;60843;52.062;4.508;2023-09-12T04:37:14;45.63;;;17.67;;
72728;SDS011;60843;52.062;4.508;2023-09-12T04:39:40;48.40;;;17.33;;
72728;SDS011;60843;52.062;4.508;2023-09-12T04:42:05;47.95;;;15.90;;
72728;SDS011;60843;52.062;4.508;2023-09-12T04:44:49;48.70;;;16.77;;
72728;SDS011;60843;52.062;4.508;2023-09-12T04:47:15;46.80;;;17.70;;
72728;SDS011;60843;52.062;4.508;2023-09-12T04:49:41;47.75;;;16.52;;
72728;SDS011;60843;52.062;4.508;2023-09-12T04:52:08;50.95;;;17.08;;
72728;SDS011;60843;52.062;4.508;2023-09-12T04:54:34;45.80;;;17.52;;
72728;SDS011;60843;52.062;4.508;2023-09-12T04:56:59;49.10;;;17.02;;
72728;SDS011;60843;52.062;4.508;2023-09-12T04:59:25;51.92;;;17.85;;
72728;SDS011;60843;52.062;4.508;2023-09-12T05:01:51;56.50;;;18.08;;
72728;SDS011;60843;52.062;4.508;2023-09-12T05:04:16;56.15;;;18.67;;
72728;SDS011;60843;52.062;4.508;2023-09-12T05:06:43;53.30;;;18.58;;
72728;SDS011;60843;52.062;4.508;2023-09-12T05:09:08;51.38;;;18.80;;
72728;SDS011;60843;52.062;4.508;2023-09-12T05:11:35;49.03;;;17.73;;
72728;SDS011;60843;52.062;4.508;2023-09-12T05:14:01;48.55;;;17.88;;
72728;SDS011;60843;52.062;4.508;2023-09-12T05:16:28;53.65;;;18.88;;
72728;SDS011;60843;52.062;4.508;2023-09-12T05:18:55;54.75;;;17.95;;
72728;SDS011;60843;52.062;4.508;2023-09-12T05:21:20;52.58;;;18.08;;
72728;SDS011;60843;52.062;4.508;2023-09-12T05:23:46;54.92;;;18.25;;
72728;SDS011;60843;52.062;4.508;2023-09-12T05:26:12;58.50;;;19.13;;
72728;SDS011;60843;52.062;4.508;2023-09-12T05:28:37;53.17;;;18.88;;
72728;SDS011;60843;52.062;4.508;2023-09-12T05:31:03;60.33;;;17.70;;
72728;SDS011;60843;52.062;4.508;2023-09-12T05:33:29;50.55;;;17.98;;
72728;SDS011;60843;52.062;4.508;2023-09-12T05:35:55;55.97;;;18.05;;
72728;SDS011;60843;52.062;4.508;2023-09-12T05:38:20;61.58;;;18.40;;
72728;SDS011;60843;52.062;4.508;2023-09-12T05:40:46;49.97;;;19.33;;
72728;SDS011;60843;52.062;4.508;2023-09-12T05:43:14;54.92;;;18.25;;
72728;SDS011;60843;52.062;4.508;2023-09-12T05:45:41;50.53;;;17.63;;
72728;SDS011;60843;52.062;4.508;2023-09-12T05:48:06;49.67;;;18.65;;
72728;SDS011;60843;52.062;4.508;2023-09-12T05:50:32;55.17;;;18.30;;
72728;SDS011;60843;52.062;4.508;2023-09-12T05:52:57;46.00;;;18.17;;
72728;SDS011;60843;52.062;4.508;2023-09-12T05:55:23;47.47;;;18.75;;
72728;SDS011;60843;52.062;4.508;2023-09-12T05:57:50;55.15;;;19.52;;
72728;SDS011;60843;52.062;4.508;2023-09-12T06:00:18;43.70;;;17.58;;
72728;SDS011;60843;52.062;4.508;2023-09-12T06:02:45;54.30;;;18.38;;
72728;SDS011;60843;52.062;4.508;2023-09-12T06:05:11;50.75;;;18.52;;
72728;SDS011;60843;52.062;4.508;2023-09-12T06:07:36;46.63;;;16.25;;
72728;SDS011;60843;52.062;4.508;2023-09-12T06:10:04;53.38;;;17.95;;
72728;SDS011;60843;52.062;4.508;2023-09-12T06:12:33;51.78;;;17.88;;
72728;SDS011;60843;52.062;4.508;2023-09-12T06:15:01;45.83;;;18.17;;
72728;SDS011;60843;52.062;4.508;2023-09-12T06:17:27;48.40;;;17.75;;
72728;SDS011;60843;52.062;4.508;2023-09-12T06:19:54;48.03;;;18.08;;
72728;SDS011;60843;52.062;4.508;2023-09-12T06:22:19;52.97;;;18.17;;
72728;SDS011;60843;52.062;4.508;2023-09-12T06:24:45;52.20;;;17.98;;
72728;SDS011;60843;52.062;4.508;2023-09-12T06:27:11;51.38;;;18.42;;
72728;SDS011;60843;52.062;4.508;2023-09-12T06:29:43;50.45;;;19.02;;
72728;SDS011;60843;52.062;4.508;2023-09-12T06:32:15;56.72;;;18.58;;
72728;SDS011;60843;52.062;4.508;2023-09-12T06:34:42;59.05;;;19.83;;
72728;SDS011;60843;52.062;4.508;2023-09-12T06:37:08;61.30;;;19.77;;
72728;SDS011;60843;52.062;4.508;2023-09-12T06:39:34;52.15;;;19.67;;
72728;SDS011;60843;52.062;4.508;2023-09-12T06:41:59;54.08;;;18.52;;
72728;SDS011;60843;52.062;4.508;2023-09-12T06:46:52;53.95;;;16.73;;
72728;SDS011;60843;52.062;4.508;2023-09-12T06:49:18;58.58;;;19.98;;
72728;SDS011;60843;52.062;4.508;2023-09-12T06:51:43;51.00;;;19.98;;
72728;SDS011;60843;52.062;4.508;2023-09-12T06:54:09;58.00;;;20.48;;
72728;SDS011;60843;52.062;4.508;2023-09-12T06:56:34;56.33;;;19.08;;
72728;SDS011;60843;52.062;4.508;2023-09-12T06:59:07;53.50;;;18.50;;
72728;SDS011;60843;52.062;4.508;2023-09-12T07:01:32;53.20;;;19.73;;
72728;SDS011;60843;52.062;4.508;2023-09-12T07:03:58;54.95;;;20.08;;
72728;SDS011;60843;52.062;4.508;2023-09-12T07:06:23;59.13;;;19.88;;
72728;SDS011;60843;52.062;4.508;2023-09-12T07:08:52;51.00;;;18.90;;
72728;SDS011;60843;52.062;4.508;2023-09-12T07:11:17;54.75;;;18.45;;
72728;SDS011;60843;52.062;4.508;2023-09-12T07:13:44;47.35;;;18.23;;
72728;SDS011;60843;52.062;4.508;2023-09-12T07:16:10;46.92;;;18.85;;
72728;SDS011;60843;52.062;4.508;2023-09-12T07:18:36;54.13;;;19.05;;
72728;SDS011;60843;52.062;4.508;2023-09-12T07:21:02;46.30;;;18.33;;
72728;SDS011;60843;52.062;4.508;2023-09-12T07:23:29;41.45;;;17.58;;
72728;SDS011;60843;52.062;4.508;2023-09-12T07:25:55;41.90;;;16.10;;
72728;SDS011;60843;52.062;4.508;2023-09-12T07:28:23;42.72;;;16.75;;
72728;SDS011;60843;52.062;4.508;2023-09-12T07:30:49;39.92;;;16.45;;
72728;SDS011;60843;52.062;4.508;2023-09-12T07:33:14;39.92;;;17.60;;
72728;SDS011;60843;52.062;4.508;2023-09-12T07:35:40;42.65;;;17.30;;
72728;SDS011;60843;52.062;4.508;2023-09-12T07:38:06;45.95;;;17.42;;
72728;SDS011;60843;52.062;4.508;2023-09-12T07:40:31;40.80;;;16.60;;
72728;SDS011;60843;52.062;4.508;2023-09-12T07:42:57;36.17;;;16.08;;
72728;SDS011;60843;52.062;4.508;2023-09-12T07:45:22;47.25;;;18.00;;
72728;SDS011;60843;52.062;4.508;2023-09-12T07:47:48;35.05;;;16.63;;
72728;SDS011;60843;52.062;4.508;2023-09-12T07:50:14;40.00;;;17.20;;
72728;SDS011;60843;52.062;4.508;2023-09-12T07:52:40;42.95;;;18.05;;
72728;SDS011;60843;52.062;4.508;2023-09-12T07:55:06;37.67;;;15.52;;
72728;SDS011;60843;52.062;4.508;2023-09-12T07:57:32;33.47;;;15.40;;
72728;SDS011;60843;52.062;4.508;2023-09-12T07:59:59;35.13;;;15.90;;
72728;SDS011;60843;52.062;4.508;2023-09-12T08:02:25;37.38;;;18.23;;
72728;SDS011;60843;52.062;4.508;2023-09-12T08:04:50;35.60;;;16.38;;
72728;SDS011;60843;52.062;4.508;2023-09-12T08:07:16;36.95;;;16.63;;
72728;SDS011;60843;52.062;4.508;2023-09-12T08:09:52;34.53;;;16.30;;
72728;SDS011;60843;52.062;4.508;2023-09-12T08:12:21;36.92;;;17.00;;
72728;SDS011;60843;52.062;4.508;2023-09-12T08:14:48;31.13;;;16.67;;
72728;SDS011;60843;52.062;4.508;2023-09-12T08:17:14;36.85;;;17.90;;
72728;SDS011;60843;52.062;4.508;2023-09-12T08:19:40;33.08;;;16.55;;
72728;SDS011;60843;52.062;4.508;2023-09-12T08:22:06;34.55;;;16.08;;
72728;SDS011;60843;52.062;4.508;2023-09-12T08:24:33;41.50;;;16.88;;
72728;SDS011;60843;52.062;4.508;2023-09-12T08:26:59;31.63;;;15.48;;
72728;SDS011;60843;52.062;4.508;2023-09-12T08:29:25;31.85;;;16.35;;
72728;SDS011;60843;52.062;4.508;2023-09-12T08:31:51;31.83;;;15.45;;
72728;SDS011;60843;52.062;4.508;2023-09-12T08:34:18;33.83;;;15.25;;
72728;SDS011;60843;52.062;4.508;2023-09-12T08:36:45;35.17;;;16.88;;
72728;SDS011;60843;52.062;4.508;2023-09-12T08:39:12;35.20;;;16.23;;
72728;SDS011;60843;52.062;4.508;2023-09-12T08:41:39;29.55;;;15.15;;
72728;SDS011;60843;52.062;4.508;2023-09-12T08:44:08;25.23;;;13.50;;
72728;SDS011;60843;52.062;4.508;2023-09-12T08:46:34;28.25;;;13.90;;
72728;SDS011;60843;52.062;4.508;2023-09-12T08:49:05;30.42;;;13.98;;
72728;SDS011;60843;52.062;4.508;2023-09-12T08:51:31;26.08;;;14.27;;
72728;SDS011;60843;52.062;4.508;2023-09-12T08:53:57;32.25;;;14.13;;
72728;SDS011;60843;52.062;4.508;2023-09-12T08:56:23;24.15;;;13.05;;
72728;SDS011;60843;52.062;4.508;2023-09-12T08:58:49;25.27;;;13.20;;
72728;SDS011;60843;52.062;4.508;2023-09-12T09:01:16;29.45;;;14.10;;
72728;SDS011;60843;52.062;4.508;2023-09-12T09:03:43;26.58;;;14.18;;
72728;SDS011;60843;52.062;4.508;2023-09-12T09:06:10;27.95;;;13.32;;
72728;SDS011;60843;52.062;4.508;2023-09-12T09:08:37;31.05;;;14.40;;
72728;SDS011;60843;52.062;4.508;2023-09-12T09:11:03;25.90;;;13.48;;
72728;SDS011;60843;52.062;4.508;2023-09-12T09:13:31;23.15;;;13.07;;
72728;SDS011;60843;52.062;4.508;2023-09-12T09:16:13;23.70;;;13.07;;
72728;SDS011;60843;52.062;4.508;2023-09-12T09:21:19;20.45;;;11.48;;
72728;SDS011;60843;52.062;4.508;2023-09-12T09:23:47;22.55;;;11.93;;
72728;SDS011;60843;52.062;4.508;2023-09-12T09:26:16;21.65;;;12.55;;
72728;SDS011;60843;52.062;4.508;2023-09-12T09:28:41;19.85;;;11.50;;
72728;SDS011;60843;52.062;4.508;2023-09-12T09:31:11;20.23;;;10.88;;
72728;SDS011;60843;52.062;4.508;2023-09-12T09:33:39;21.35;;;10.98;;
72728;SDS011;60843;52.062;4.508;2023-09-12T09:36:06;23.50;;;11.95;;
72728;SDS011;60843;52.062;4.508;2023-09-12T09:38:32;20.88;;;12.00;;
72728;SDS011;60843;52.062;4.508;2023-09-12T09:41:00;22.48;;;12.65;;
72728;SDS011;60843;52.062;4.508;2023-09-12T09:43:30;24.50;;;12.93;;
72728;SDS011;60843;52.062;4.508;2023-09-12T09:45:57;26.45;;;13.98;;
72728;SDS011;60843;52.062;4.508;2023-09-12T09:48:24;21.42;;;11.73;;
72728;SDS011;60843;52.062;4.508;2023-09-12T09:50:53;17.08;;;10.35;;
72728;SDS011;60843;52.062;4.508;2023-09-12T09:53:31;17.80;;;10.73;;
72728;SDS011;60843;52.062;4.508;2023-09-12T09:56:12;24.05;;;10.25;;
72728;SDS011;60843;52.062;4.508;2023-09-12T09:58:45;19.35;;;10.18;;
72728;SDS011;60843;52.062;4.508;2023-09-12T10:01:19;19.35;;;10.07;;
72728;SDS011;60843;52.062;4.508;2023-09-12T10:03:46;22.02;;;11.68;;
72728;SDS011;60843;52.062;4.508;2023-09-12T10:06:16;22.67;;;11.57;;
72728;SDS011;60843;52.062;4.508;2023-09-12T10:08:43;24.33;;;12.05;;
72728;SDS011;60843;52.062;4.508;2023-09-12T10:13:37;24.00;;;10.45;;
72728;SDS011;60843;52.062;4.508;2023-09-12T10:16:03;19.13;;;10.57;;
72728;SDS011;60843;52.062;4.508;2023-09-12T10:18:31;12.20;;;8.32;;
72728;SDS011;60843;52.062;4.508;2023-09-12T10:21:10;10.00;;;6.30;;
72728;SDS011;60843;52.062;4.508;2023-09-12T10:23:37;11.75;;;6.05;;
72728;SDS011;60843;52.062;4.508;2023-09-12T10:26:08;12.88;;;6.55;;
72728;SDS011;60843;52.062;4.508;2023-09-12T10:28:36;10.73;;;6.70;;
72728;SDS011;60843;52.062;4.508;2023-09-12T10:31:03;14.65;;;6.70;;
72728;SDS011;60843;52.062;4.508;2023-09-12T10:33:31;16.58;;;8.43;;
72728;SDS011;60843;52.062;4.508;2023-09-12T10:35:57;14.75;;;8.85;;
72728;SDS011;60843;52.062;4.508;2023-09-12T10:38:25;16.00;;;9.32;;
72728;SDS011;60843;52.062;4.508;2023-09-12T10:40:55;19.95;;;11.18;;
72728;SDS011;60843;52.062;4.508;2023-09-12T10:43:24;20.42;;;11.18;;
72728;SDS011;60843;52.062;4.508;2023-09-12T10:45:51;18.20;;;11.40;;
72728;SDS011;60843;52.062;4.508;2023-09-12T10:48:17;21.23;;;12.20;;
72728;SDS011;60843;52.062;4.508;2023-09-12T10:50:43;24.63;;;12.10;;
72728;SDS011;60843;52.062;4.508;2023-09-12T10:53:16;25.48;;;12.68;;
72728;SDS011;60843;52.062;4.508;2023-09-12T10:55:57;23.67;;;12.13;;
72728;SDS011;60843;52.062;4.508;2023-09-12T10:58:27;20.58;;;10.90;;
72728;SDS011;60843;52.062;4.508;2023-09-12T11:03:55;23.95;;;11.88;;
72728;SDS011;60843;52.062;4.508;2023-09-12T11:06:30;22.60;;;11.15;;
72728;SDS011;60843;52.062;4.508;2023-09-12T11:12:02;15.02;;;7.45;;
72728;SDS011;60843;52.062;4.508;2023-09-12T11:14:27;14.85;;;6.68;;
72728;SDS011;60843;52.062;4.508;2023-09-12T11:19:42;13.10;;;6.78;;
72728;SDS011;60843;52.062;4.508;2023-09-12T11:22:20;11.63;;;6.38;;
72728;SDS011;60843;52.062;4.508;2023-09-12T11:24:56;15.20;;;6.90;;
72728;SDS011;60843;52.062;4.508;2023-09-12T11:27:25;12.93;;;6.60;;
72728;SDS011;60843;52.062;4.508;2023-09-12T11:30:02;18.92;;;8.13;;
72728;SDS011;60843;52.062;4.508;2023-09-12T11:32:32;16.25;;;7.70;;
72728;SDS011;60843;52.062;4.508;2023-09-12T11:35:07;20.60;;;9.30;;
72728;SDS011;60843;52.062;4.508;2023-09-12T11:37:33;19.15;;;9.10;;
72728;SDS011;60843;52.062;4.508;2023-09-12T11:40:02;23.27;;;9.82;;
72728;SDS011;60843;52.062;4.508;2023-09-12T11:42:40;22.20;;;10.10;;
72728;SDS011;60843;52.062;4.508;2023-09-12T11:45:11;22.05;;;9.57;;
72728;SDS011;60843;52.062;4.508;2023-09-12T11:47:40;28.23;;;11.23;;
72728;SDS011;60843;52.062;4.508;2023-09-12T11:50:07;28.38;;;12.82;;
72728;SDS011;60843;52.062;4.508;2023-09-12T11:53:02;41.58;;;17.10;;
72728;SDS011;60843;52.062;4.508;2023-09-12T11:55:54;37.70;;;17.42;;
72728;SDS011;60843;52.062;4.508;2023-09-12T11:58:22;31.13;;;17.15;;
72728;SDS011;60843;52.062;4.508;2023-09-12T12:00:51;38.22;;;17.65;;
72728;SDS011;60843;52.062;4.508;2023-09-12T12:03:22;31.88;;;16.50;;
72728;SDS011;60843;52.062;4.508;2023-09-12T12:05:58;34.83;;;17.15;;
72728;SDS011;60843;52.062;4.508;2023-09-12T12:08:27;34.38;;;18.20;;
72728;SDS011;60843;52.062;4.508;2023-09-12T12:11:06;38.80;;;19.10;;
72728;SDS011;60843;52.062;4.508;2023-09-12T12:13:39;39.00;;;18.98;;
72728;SDS011;60843;52.062;4.508;2023-09-12T12:16:17;39.58;;;20.85;;
72728;SDS011;60843;52.062;4.508;2023-09-12T12:18:45;26.08;;;14.73;;
72728;SDS011;60843;52.062;4.508;2023-09-12T12:21:21;24.25;;;13.07;;
72728;SDS011;60843;52.062;4.508;2023-09-12T12:23:56;21.08;;;11.75;;
72728;SDS011;60843;52.062;4.508;2023-09-12T12:26:47;26.27;;;13.90;;
72728;SDS011;60843;52.062;4.508;2023-09-12T12:31:38;22.80;;;12.93;;
72728;SDS011;60843;52.062;4.508;2023-09-12T12:34:04;19.58;;;10.85;;
72728;SDS011;60843;52.062;4.508;2023-09-12T12:36:32;22.67;;;10.98;;
72728;SDS011;60843;52.062;4.508;2023-09-12T12:38:58;20.30;;;11.27;;
72728;SDS011;60843;52.062;4.508;2023-09-12T12:41:30;18.58;;;11.38;;
72728;SDS011;60843;52.062;4.508;2023-09-12T12:43:56;16.73;;;11.27;;
72728;SDS011;60843;52.062;4.508;2023-09-12T12:46:24;17.05;;;10.50;;
72728;SDS011;60843;52.062;4.508;2023-09-12T12:48:50;15.88;;;9.70;;
72728;SDS011;60843;52.062;4.508;2023-09-12T12:53:49;13.73;;;8.43;;
72728;SDS011;60843;52.062;4.508;2023-09-12T12:56:17;13.27;;;7.55;;
72728;SDS011;60843;52.062;4.508;2023-09-12T12:58:57;8.60;;;5.20;;
72728;SDS011;60843;52.062;4.508;2023-09-12T13:01:24;11.25;;;4.82;;
72728;SDS011;60843;52.062;4.508;2023-09-12T13:03:55;9.90;;;5.50;;
72728;SDS011;60843;52.062;4.508;2023-09-12T13:06:21;9.63;;;5.85;;
72728;SDS011;60843;52.062;4.508;2023-09-12T13:08:51;7.90;;;5.00;;
72728;SDS011;60843;52.062;4.508;2023-09-12T13:11:29;9.68;;;5.50;;
72728;SDS011;60843;52.062;4.508;2023-09-12T13:14:05;8.00;;;5.47;;
72728;SDS011;60843;52.062;4.508;2023-09-12T13:16:37;10.20;;;5.35;;
72728;SDS011;60843;52.062;4.508;2023-09-12T13:19:06;8.45;;;5.25;;
72728;SDS011;60843;52.062;4.508;2023-09-12T13:21:32;9.05;;;5.78;;
72728;SDS011;60843;52.062;4.508;2023-09-12T13:23:58;14.52;;;5.88;;
72728;SDS011;60843;52.062;4.508;2023-09-12T13:26:24;8.98;;;5.28;;
72728;SDS011;60843;52.062;4.508;2023-09-12T13:28:54;9.13;;;6.00;;
72728;SDS011;60843;52.062;4.508;2023-09-12T13:31:23;12.73;;;6.53;;
72728;SDS011;60843;52.062;4.508;2023-09-12T13:33:57;10.50;;;6.72;;
72728;SDS011;60843;52.062;4.508;2023-09-12T13:36:41;12.77;;;7.07;;
72728;SDS011;60843;52.062;4.508;2023-09-12T13:39:07;10.45;;;6.60;;
72728;SDS011;60843;52.062;4.508;2023-09-12T13:41:32;18.13;;;7.30;;
72728;SDS011;60843;52.062;4.508;2023-09-12T13:44:05;12.18;;;5.35;;
72728;SDS011;60843;52.062;4.508;2023-09-12T13:46:31;12.13;;;6.07;;
72728;SDS011;60843;52.062;4.508;2023-09-12T13:48:57;10.10;;;6.30;;
72728;SDS011;60843;52.062;4.508;2023-09-12T13:51:28;11.95;;;6.38;;
72728;SDS011;60843;52.062;4.508;2023-09-12T13:53:54;12.00;;;6.78;;
72728;SDS011;60843;52.062;4.508;2023-09-12T13:56:20;13.15;;;7.50;;
72728;SDS011;60843;52.062;4.508;2023-09-12T13:58:45;14.90;;;7.60;;
72728;SDS011;60843;52.062;4.508;2023-09-12T14:01:11;15.52;;;7.80;;
72728;SDS011;60843;52.062;4.508;2023-09-12T14:03:37;17.58;;;7.55;;
72728;SDS011;60843;52.062;4.508;2023-09-12T14:06:03;19.33;;;8.80;;
72728;SDS011;60843;52.062;4.508;2023-09-12T14:08:32;18.45;;;8.63;;
72728;SDS011;60843;52.062;4.508;2023-09-12T14:11:15;18.20;;;9.25;;
72728;SDS011;60843;52.062;4.508;2023-09-12T14:14:04;16.73;;;9.52;;
72728;SDS011;60843;52.062;4.508;2023-09-12T14:16:33;25.95;;;9.73;;
72728;SDS011;60843;52.062;4.508;2023-09-12T14:19:01;19.13;;;8.93;;
72728;SDS011;60843;52.062;4.508;2023-09-12T14:21:29;27.42;;;10.10;;
72728;SDS011;60843;52.062;4.508;2023-09-12T14:23:58;18.80;;;9.65;;
72728;SDS011;60843;52.062;4.508;2023-09-12T14:26:24;19.83;;;9.93;;
72728;SDS011;60843;52.062;4.508;2023-09-12T14:31:24;16.02;;;7.97;;
72728;SDS011;60843;52.062;4.508;2023-09-12T14:34:03;22.33;;;11.13;;
72728;SDS011;60843;52.062;4.508;2023-09-12T14:36:39;18.52;;;9.63;;
72728;SDS011;60843;52.062;4.508;2023-09-12T14:39:07;16.88;;;8.35;;
72728;SDS011;60843;52.062;4.508;2023-09-12T14:41:33;15.73;;;8.68;;
72728;SDS011;60843;52.062;4.508;2023-09-12T14:44:02;14.48;;;8.32;;
72728;SDS011;60843;52.062;4.508;2023-09-12T14:46:30;18.80;;;8.70;;
72728;SDS011;60843;52.062;4.508;2023-09-12T14:48:56;21.13;;;10.18;;
72728;SDS011;60843;52.062;4.508;2023-09-12T14:51:24;20.05;;;9.77;;
72728;SDS011;60843;52.062;4.508;2023-09-12T14:53:50;22.42;;;12.00;;
72728;SDS011;60843;52.062;4.508;2023-09-12T14:56:16;24.20;;;12.75;;
72728;SDS011;60843;52.062;4.508;2023-09-12T14:58:41;25.20;;;12.48;;
72728;SDS011;60843;52.062;4.508;2023-09-12T15:01:07;25.73;;;12.75;;